createdAt,value
2018-09-15T00:00:13.551Z,1007.79
2018-09-15T00:01:14.569Z,1007.76
2018-09-15T00:02:13.585Z,1007.74
2018-09-15T00:03:13.658Z,1007.72
2018-09-15T00:04:13.613Z,1007.70
2018-09-15T00:05:13.630Z,1007.71
2018-09-15T00:06:13.649Z,1007.70
2018-09-15T00:07:13.675Z,1007.67
2018-09-15T00:08:13.683Z,1007.69
2018-09-15T00:09:13.759Z,1007.70
2018-09-15T00:10:13.717Z,1007.64
2018-09-15T00:11:13.739Z,1007.65
2018-09-15T00:12:13.766Z,1007.67
2018-09-15T00:13:13.771Z,1007.67
2018-09-15T00:14:13.821Z,1007.64
2018-09-15T00:15:13.807Z,1007.65
2018-09-15T00:16:13.823Z,1007.64
2018-09-15T00:17:13.843Z,1007.62
2018-09-15T00:18:13.858Z,1007.66
2018-09-15T00:19:13.879Z,1007.64
2018-09-15T00:20:13.887Z,1007.64
2018-09-15T00:21:13.910Z,1007.67
2018-09-15T00:22:13.927Z,1007.67
2018-09-15T00:23:14.055Z,1007.68
2018-09-15T00:24:13.954Z,1007.67
2018-09-15T00:25:13.975Z,1007.71
2018-09-15T00:26:13.991Z,1007.69
2018-09-15T00:27:14.051Z,1007.70
2018-09-15T00:28:14.022Z,1007.71
2018-09-15T00:29:14.037Z,1007.70
2018-09-15T00:30:14.055Z,1007.67
2018-09-15T00:31:14.078Z,1007.63
2018-09-15T00:32:14.094Z,1007.62
2018-09-15T00:33:14.110Z,1007.63
2018-09-15T00:34:14.122Z,1007.63
2018-09-15T00:35:14.150Z,1007.62
2018-09-15T00:36:14.163Z,1007.61
2018-09-15T00:37:14.175Z,1007.58
2018-09-15T00:38:14.187Z,1007.63
2018-09-15T00:39:14.206Z,1007.62
2018-09-15T00:40:14.310Z,1007.63
2018-09-15T00:41:14.245Z,1007.65
2018-09-15T00:42:14.253Z,1007.58
2018-09-15T00:43:14.275Z,1007.57
2018-09-15T00:44:14.289Z,1007.61
2018-09-15T00:45:14.306Z,1007.59
2018-09-15T00:46:14.330Z,1007.59
2018-09-15T00:47:14.342Z,1007.60
2018-09-15T00:48:14.362Z,1007.59
2018-09-15T00:49:14.382Z,1007.59
2018-09-15T00:50:14.389Z,1007.59
2018-09-15T00:51:14.409Z,1007.59
2018-09-15T00:52:14.470Z,1007.62
2018-09-15T00:53:14.443Z,1007.63
2018-09-15T00:54:14.466Z,1007.62
2018-09-15T00:55:14.479Z,1007.63
2018-09-15T00:56:14.498Z,1007.62
2018-09-15T00:57:14.511Z,1007.65
2018-09-15T00:58:14.541Z,1007.62
2018-09-15T00:59:14.554Z,1007.66
2018-09-15T01:00:14.561Z,1007.62
2018-09-15T01:01:14.579Z,1007.63
2018-09-15T01:02:14.597Z,1007.60
2018-09-15T01:03:14.611Z,1007.61
2018-09-15T01:04:14.625Z,1007.54
2018-09-15T01:05:14.641Z,1007.54
2018-09-15T01:06:14.662Z,1007.59
2018-09-15T01:07:14.683Z,1007.62
2018-09-15T01:08:14.699Z,1007.61
2018-09-15T01:09:14.720Z,1007.64
2018-09-15T01:10:14.725Z,1007.61
2018-09-15T01:11:14.741Z,1007.68
2018-09-15T01:12:14.766Z,1007.66
2018-09-15T01:13:14.830Z,1007.68
2018-09-15T01:14:15.007Z,1007.66
2018-09-15T01:15:14.811Z,1007.69
2018-09-15T01:16:14.829Z,1007.73
2018-09-15T01:17:14.897Z,1007.70
2018-09-15T01:18:14.862Z,1007.71
2018-09-15T01:19:14.885Z,1007.72
2018-09-15T01:20:14.894Z,1007.75
2018-09-15T01:21:14.911Z,1007.75
2018-09-15T01:22:14.930Z,1007.75
2018-09-15T01:23:15.007Z,1007.75
2018-09-15T01:24:14.966Z,1007.74
2018-09-15T01:25:14.990Z,1007.76
2018-09-15T01:26:15.003Z,1007.73
2018-09-15T01:27:15.018Z,1007.78
2018-09-15T01:28:15.030Z,1007.75
2018-09-15T01:29:15.078Z,1007.77
2018-09-15T01:30:15.066Z,1007.80
2018-09-15T01:31:15.134Z,1007.78
2018-09-15T01:32:15.099Z,1007.77
2018-09-15T01:33:15.116Z,1007.79
2018-09-15T01:34:15.167Z,1007.77
2018-09-15T01:35:15.154Z,1007.79
2018-09-15T01:36:15.167Z,1007.75
2018-09-15T01:37:15.841Z,1007.77
2018-09-15T01:38:15.202Z,1007.76
2018-09-15T01:39:15.219Z,1007.76
2018-09-15T01:40:15.239Z,1007.76
2018-09-15T01:41:15.250Z,1007.76
2018-09-15T01:42:15.312Z,1007.73
2018-09-15T01:43:15.285Z,1007.71
2018-09-15T01:44:15.302Z,1007.73
2018-09-15T01:45:15.322Z,1007.72
2018-09-15T01:46:15.335Z,1007.74
2018-09-15T01:47:15.355Z,1007.73
2018-09-15T01:48:15.403Z,1007.74
2018-09-15T01:49:15.387Z,1007.75
2018-09-15T01:50:15.403Z,1007.71
2018-09-15T01:51:15.427Z,1007.67
2018-09-15T01:52:15.644Z,1007.66
2018-09-15T01:53:15.652Z,1007.64
2018-09-15T01:54:15.687Z,1007.62
2018-09-15T01:55:15.759Z,1007.58
2018-09-15T01:56:15.504Z,1007.58
2018-09-15T01:57:15.524Z,1007.55
2018-09-15T01:58:15.542Z,1007.51
2018-09-15T01:59:15.555Z,1007.45
2018-09-15T02:00:15.581Z,1007.42
2018-09-15T02:01:15.591Z,1007.37
2018-09-15T02:02:15.603Z,1007.38
2018-09-15T02:03:15.619Z,1007.34
2018-09-15T02:04:15.636Z,1007.30
2018-09-15T02:05:15.660Z,1007.29
2018-09-15T02:06:15.676Z,1007.23
2018-09-15T02:07:15.687Z,1007.22
2018-09-15T02:08:15.708Z,1007.19
2018-09-15T02:09:15.729Z,1007.17
2018-09-15T02:10:15.740Z,1007.15
2018-09-15T02:11:15.756Z,1007.19
2018-09-15T02:12:15.775Z,1007.16
2018-09-15T02:13:15.796Z,1007.12
2018-09-15T02:14:15.808Z,1007.12
2018-09-15T02:15:15.829Z,1007.14
2018-09-15T02:16:15.840Z,1007.10
2018-09-15T02:17:15.861Z,1007.07
2018-09-15T02:18:15.876Z,1007.00
2018-09-15T02:19:15.900Z,1006.98
2018-09-15T02:20:15.919Z,1006.92
2018-09-15T02:21:15.920Z,1006.89
2018-09-15T02:22:15.940Z,1006.87
2018-09-15T02:23:15.961Z,1006.86
2018-09-15T02:24:15.979Z,1006.82
2018-09-15T02:25:16.008Z,1006.88
2018-09-15T02:26:16.008Z,1006.89
2018-09-15T02:27:16.029Z,1006.87
2018-09-15T02:28:16.041Z,1006.91
2018-09-15T02:29:16.064Z,1006.96
2018-09-15T02:30:16.072Z,1006.97
2018-09-15T02:31:16.093Z,1007.02
2018-09-15T02:32:16.113Z,1007.02
2018-09-15T02:33:16.129Z,1007.03
2018-09-15T02:34:16.161Z,1007.03
2018-09-15T02:35:16.162Z,1007.04
2018-09-15T02:36:16.186Z,1006.99
2018-09-15T02:37:16.245Z,1006.94
2018-09-15T02:38:16.214Z,1006.90
2018-09-15T02:39:16.231Z,1006.87
2018-09-15T02:40:16.245Z,1006.84
2018-09-15T02:41:16.264Z,1006.83
2018-09-15T02:42:16.282Z,1006.77
2018-09-15T02:43:16.341Z,1006.77
2018-09-15T02:44:16.322Z,1006.75
2018-09-15T02:45:16.326Z,1006.72
2018-09-15T02:46:16.350Z,1006.73
2018-09-15T02:47:16.362Z,1006.69
2018-09-15T02:48:16.382Z,1006.70
2018-09-15T02:49:16.429Z,1006.71
2018-09-15T02:50:16.422Z,1006.72
2018-09-15T02:51:16.430Z,1006.68
2018-09-15T02:52:16.452Z,1006.68
2018-09-15T02:53:16.457Z,1006.65
2018-09-15T02:54:16.485Z,1006.66
2018-09-15T02:55:16.598Z,1006.63
2018-09-15T02:56:16.510Z,1006.67
2018-09-15T02:57:16.531Z,1006.61
2018-09-15T02:58:16.552Z,1006.63
2018-09-15T02:59:16.571Z,1006.63
2018-09-15T03:00:16.583Z,1006.58
2018-09-15T03:01:16.644Z,1006.55
2018-09-15T03:02:16.615Z,1006.55
2018-09-15T03:03:16.634Z,1006.56
2018-09-15T03:04:16.652Z,1006.56
2018-09-15T03:05:16.670Z,1006.54
2018-09-15T03:06:16.684Z,1006.56
2018-09-15T03:07:16.781Z,1006.55
2018-09-15T03:08:16.718Z,1006.56
2018-09-15T03:09:16.731Z,1006.55
2018-09-15T03:10:16.748Z,1006.54
2018-09-15T03:11:16.759Z,1006.54
2018-09-15T03:12:16.783Z,1006.50
2018-09-15T03:13:16.795Z,1006.48
2018-09-15T03:14:16.815Z,1006.46
2018-09-15T03:15:16.829Z,1006.43
2018-09-15T03:16:16.846Z,1006.41
2018-09-15T03:17:16.863Z,1006.39
2018-09-15T03:18:16.875Z,1006.39
2018-09-15T03:19:16.902Z,1006.39
2018-09-15T03:20:16.956Z,1006.38
2018-09-15T03:21:16.938Z,1006.38
2018-09-15T03:22:16.948Z,1006.36
2018-09-15T03:23:16.961Z,1006.35
2018-09-15T03:24:16.982Z,1006.36
2018-09-15T03:25:16.996Z,1006.34
2018-09-15T03:26:17.020Z,1006.30
2018-09-15T03:27:17.032Z,1006.34
2018-09-15T03:28:17.062Z,1006.30
2018-09-15T03:29:17.064Z,1006.30
2018-09-15T03:30:17.085Z,1006.30
2018-09-15T03:31:17.106Z,1006.29
2018-09-15T03:32:17.113Z,1006.28
2018-09-15T03:33:17.130Z,1006.34
2018-09-15T03:34:17.145Z,1006.31
2018-09-15T03:35:17.161Z,1006.34
2018-09-15T03:36:17.176Z,1006.33
2018-09-15T03:37:17.197Z,1006.33
2018-09-15T03:38:17.222Z,1006.28
2018-09-15T03:39:17.293Z,1006.28
2018-09-15T03:40:17.244Z,1006.18
2018-09-15T03:41:17.285Z,1006.14
2018-09-15T03:42:17.283Z,1006.10
2018-09-15T03:43:17.301Z,1006.08
2018-09-15T03:44:17.318Z,1006.08
2018-09-15T03:45:17.333Z,1006.08
2018-09-15T03:46:17.349Z,1006.09
2018-09-15T03:47:17.366Z,1006.09
2018-09-15T03:48:17.386Z,1006.06
2018-09-15T03:49:17.402Z,1006.09
2018-09-15T03:50:17.413Z,1006.07
2018-09-15T03:51:17.445Z,1006.06
2018-09-15T03:52:17.454Z,1006.02
2018-09-15T03:53:17.466Z,1005.98
2018-09-15T03:54:17.493Z,1005.98
2018-09-15T03:55:17.497Z,1005.96
2018-09-15T03:56:17.514Z,1005.95
2018-09-15T03:57:17.526Z,1005.93
2018-09-15T03:58:17.546Z,1005.91
2018-09-15T03:59:17.566Z,1005.90
2018-09-15T04:00:17.583Z,1005.86
2018-09-15T04:01:17.608Z,1005.84
2018-09-15T04:02:17.614Z,1005.84
2018-09-15T04:03:17.634Z,1005.83
2018-09-15T04:04:17.646Z,1005.78
2018-09-15T04:05:17.662Z,1005.68
2018-09-15T04:06:17.682Z,1005.63
2018-09-15T04:07:17.702Z,1005.56
2018-09-15T04:08:17.714Z,1005.50
2018-09-15T04:09:17.731Z,1005.44
2018-09-15T04:10:17.750Z,1005.44
2018-09-15T04:11:17.765Z,1005.39
2018-09-15T04:12:17.782Z,1005.40
2018-09-15T04:13:17.796Z,1005.41
2018-09-15T04:14:17.815Z,1005.47
2018-09-15T04:15:17.834Z,1005.49
2018-09-15T04:16:17.850Z,1005.49
2018-09-15T04:17:17.867Z,1005.52
2018-09-15T04:18:17.874Z,1005.52
2018-09-15T04:19:17.900Z,1005.45
2018-09-15T04:20:17.915Z,1005.43
2018-09-15T04:21:17.939Z,1005.46
2018-09-15T04:22:17.945Z,1005.44
2018-09-15T04:23:17.959Z,1005.45
2018-09-15T04:24:17.980Z,1005.45
2018-09-15T04:25:17.995Z,1005.42
2018-09-15T04:26:18.013Z,1005.41
2018-09-15T04:27:18.023Z,1005.40
2018-09-15T04:28:18.057Z,1005.45
2018-09-15T04:29:18.059Z,1005.44
2018-09-15T04:30:18.075Z,1005.45
2018-09-15T04:31:18.096Z,1005.42
2018-09-15T04:32:18.117Z,1005.46
2018-09-15T04:33:18.132Z,1005.47
2018-09-15T04:34:18.194Z,1005.50
2018-09-15T04:35:18.160Z,1005.54
2018-09-15T04:36:18.176Z,1005.56
2018-09-15T04:37:18.197Z,1005.60
2018-09-15T04:38:18.207Z,1005.59
2018-09-15T04:39:18.227Z,1005.64
2018-09-15T04:40:18.284Z,1005.69
2018-09-15T04:41:18.257Z,1005.73
2018-09-15T04:42:18.280Z,1005.82
2018-09-15T04:43:20.396Z,1005.83
2018-09-15T04:44:18.311Z,1005.85
2018-09-15T04:45:18.325Z,1005.80
2018-09-15T04:46:18.364Z,1005.85
2018-09-15T04:47:18.360Z,1005.88
2018-09-15T04:48:18.378Z,1005.88
2018-09-15T04:49:18.393Z,1005.87
2018-09-15T04:50:18.432Z,1005.87
2018-09-15T04:51:18.428Z,1005.87
2018-09-15T04:52:18.448Z,1005.85
2018-09-15T04:53:18.465Z,1005.85
2018-09-15T04:54:18.480Z,1005.82
2018-09-15T04:55:18.502Z,1005.84
2018-09-15T04:56:18.513Z,1005.85
2018-09-15T04:57:18.529Z,1005.86
2018-09-15T04:58:18.550Z,1005.84
2018-09-15T04:59:18.653Z,1005.83
2018-09-15T05:00:18.585Z,1005.83
2018-09-15T05:01:18.600Z,1005.85
2018-09-15T05:02:18.617Z,1005.84
2018-09-15T05:03:18.628Z,1005.90
2018-09-15T05:04:18.642Z,1005.86
2018-09-15T05:05:18.673Z,1005.85
2018-09-15T05:06:18.686Z,1005.87
2018-09-15T05:07:18.750Z,1005.87
2018-09-15T05:08:18.722Z,1005.86
2018-09-15T05:09:18.727Z,1005.87
2018-09-15T05:10:18.745Z,1005.82
2018-09-15T05:11:18.762Z,1005.81
2018-09-15T05:12:18.796Z,1005.82
2018-09-15T05:13:18.809Z,1005.83
2018-09-15T05:14:18.818Z,1005.78
2018-09-15T05:15:18.843Z,1005.81
2018-09-15T05:16:18.858Z,1005.74
2018-09-15T05:17:18.875Z,1005.72
2018-09-15T05:18:18.887Z,1005.70
2018-09-15T05:19:18.907Z,1005.68
2018-09-15T05:20:18.923Z,1005.68
2018-09-15T05:21:18.934Z,1005.70
2018-09-15T05:22:18.950Z,1005.69
2018-09-15T05:23:18.971Z,1005.79
2018-09-15T05:24:19.079Z,1005.81
2018-09-15T05:25:19.008Z,1005.77
2018-09-15T05:26:19.024Z,1005.75
2018-09-15T05:27:19.035Z,1005.75
2018-09-15T05:28:19.067Z,1005.70
2018-09-15T05:29:19.075Z,1005.74
2018-09-15T05:30:19.105Z,1005.73
2018-09-15T05:31:19.111Z,1005.74
2018-09-15T05:32:19.128Z,1005.77
2018-09-15T05:33:19.144Z,1005.82
2018-09-15T05:34:19.160Z,1005.80
2018-09-15T05:35:19.179Z,1005.79
2018-09-15T05:36:19.196Z,1005.79
2018-09-15T05:37:19.219Z,1005.71
2018-09-15T05:38:19.230Z,1005.73
2018-09-15T05:39:19.240Z,1005.77
2018-09-15T05:40:19.256Z,1005.77
2018-09-15T05:41:19.272Z,1005.84
2018-09-15T05:42:19.292Z,1005.87
2018-09-15T05:43:19.312Z,1005.90
2018-09-15T05:44:19.325Z,1005.97
2018-09-15T05:45:19.341Z,1006.06
2018-09-15T05:46:19.362Z,1006.12
2018-09-15T05:47:19.376Z,1006.21
2018-09-15T05:48:19.397Z,1006.28
2018-09-15T05:49:19.508Z,1006.37
2018-09-15T05:50:19.428Z,1006.45
2018-09-15T05:51:19.441Z,1006.58
2018-09-15T05:52:19.465Z,1006.70
2018-09-15T05:53:19.481Z,1006.68
2018-09-15T05:54:19.493Z,1006.71
2018-09-15T05:55:19.518Z,1006.82
2018-09-15T05:56:19.530Z,1006.95
2018-09-15T05:57:19.550Z,1006.95
2018-09-15T05:58:19.564Z,1006.97
2018-09-15T05:59:19.584Z,1007.01
2018-09-15T06:00:19.605Z,1006.85
2018-09-15T06:01:19.607Z,1006.82
2018-09-15T06:02:19.625Z,1006.77
2018-09-15T06:03:19.642Z,1006.93
2018-09-15T06:04:19.686Z,1007.00
2018-09-15T06:05:19.677Z,1007.06
2018-09-15T06:06:19.695Z,1007.04
2018-09-15T06:07:19.714Z,1007.12
2018-09-15T06:08:19.726Z,1007.09
2018-09-15T06:09:19.743Z,1006.96
2018-09-15T06:10:19.760Z,1006.89
2018-09-15T06:11:19.775Z,1006.91
2018-09-15T06:12:19.791Z,1007.00
2018-09-15T06:13:19.807Z,1007.09
2018-09-15T06:14:19.880Z,1007.18
2018-09-15T06:15:19.839Z,1007.19
2018-09-15T06:16:19.855Z,1007.09
2018-09-15T06:17:19.873Z,1007.03
2018-09-15T06:18:19.895Z,1006.94
2018-09-15T06:19:19.905Z,1006.84
2018-09-15T06:20:19.953Z,1006.94
2018-09-15T06:21:19.935Z,1007.02
2018-09-15T06:22:19.957Z,1007.07
2018-09-15T06:23:19.968Z,1007.17
2018-09-15T06:24:19.980Z,1007.11
2018-09-15T06:25:20.007Z,1007.20
2018-09-15T06:26:20.016Z,1007.13
2018-09-15T06:27:20.033Z,1007.14
2018-09-15T06:28:20.044Z,1007.11
2018-09-15T06:29:20.060Z,1007.04
2018-09-15T06:30:20.076Z,1007.01
2018-09-15T06:31:20.092Z,1007.00
2018-09-15T06:32:20.181Z,1007.01
2018-09-15T06:33:20.124Z,1007.10
2018-09-15T06:34:20.150Z,1007.13
2018-09-15T06:35:20.160Z,1007.16
2018-09-15T06:36:20.190Z,1007.15
2018-09-15T06:37:21.699Z,1007.13
2018-09-15T06:38:20.241Z,1007.06
2018-09-15T06:39:20.285Z,1007.02
2018-09-15T06:40:20.234Z,1007.05
2018-09-15T06:41:20.249Z,1007.04
2018-09-15T06:42:20.309Z,1006.99
2018-09-15T06:43:20.286Z,1007.05
2018-09-15T06:44:20.373Z,1007.02
2018-09-15T06:45:20.394Z,1007.03
2018-09-15T06:46:20.330Z,1007.02
2018-09-15T06:47:20.349Z,1007.03
2018-09-15T06:48:20.361Z,1007.05
2018-09-15T06:49:20.388Z,1007.05
2018-09-15T06:50:20.413Z,1007.04
2018-09-15T06:51:20.450Z,1007.09
2018-09-15T06:52:20.435Z,1007.06
2018-09-15T06:53:20.442Z,1007.10
2018-09-15T06:54:20.458Z,1007.14
2018-09-15T06:55:20.489Z,1007.18
2018-09-15T06:56:20.543Z,1007.20
2018-09-15T06:57:20.506Z,1007.19
2018-09-15T06:58:20.527Z,1007.20
2018-09-15T06:59:20.534Z,1007.20
2018-09-15T07:00:20.554Z,1007.22
2018-09-15T07:01:20.571Z,1007.21
2018-09-15T07:02:20.587Z,1007.23
2018-09-15T07:03:20.609Z,1007.21
2018-09-15T07:04:20.622Z,1007.24
2018-09-15T07:05:20.634Z,1007.31
2018-09-15T07:06:20.651Z,1007.30
2018-09-15T07:07:20.684Z,1007.28
2018-09-15T07:08:20.694Z,1007.24
2018-09-15T07:09:20.704Z,1007.23
2018-09-15T07:10:20.721Z,1007.21
2018-09-15T07:11:20.732Z,1007.19
2018-09-15T07:12:20.759Z,1007.20
2018-09-15T07:13:20.767Z,1007.23
2018-09-15T07:14:20.783Z,1007.28
2018-09-15T07:15:20.815Z,1007.29
2018-09-15T07:16:20.815Z,1007.30
2018-09-15T07:17:20.836Z,1007.32
2018-09-15T07:18:20.852Z,1007.29
2018-09-15T07:19:20.865Z,1007.27
2018-09-15T07:20:20.884Z,1007.21
2018-09-15T07:21:20.935Z,1007.18
2018-09-15T07:22:20.909Z,1007.15
2018-09-15T07:23:20.933Z,1007.11
2018-09-15T07:24:20.944Z,1007.11
2018-09-15T07:25:20.960Z,1007.14
2018-09-15T07:26:20.981Z,1007.22
2018-09-15T07:27:21.001Z,1007.24
2018-09-15T07:28:21.012Z,1007.26
2018-09-15T07:29:21.026Z,1007.29
2018-09-15T07:30:21.050Z,1007.30
2018-09-15T07:31:21.123Z,1007.30
2018-09-15T07:32:21.076Z,1007.30
2018-09-15T07:33:21.097Z,1007.32
2018-09-15T07:34:21.114Z,1007.29
2018-09-15T07:35:21.129Z,1007.33
2018-09-15T07:36:21.150Z,1007.36
2018-09-15T07:37:21.163Z,1007.44
2018-09-15T07:38:21.177Z,1007.45
2018-09-15T07:39:21.198Z,1007.51
2018-09-15T07:40:21.206Z,1007.48
2018-09-15T07:41:21.230Z,1007.50
2018-09-15T07:42:21.242Z,1007.51
2018-09-15T07:43:21.260Z,1007.49
2018-09-15T07:44:21.278Z,1007.51
2018-09-15T07:45:21.295Z,1007.51
2018-09-15T07:46:21.314Z,1007.52
2018-09-15T07:47:21.335Z,1007.47
2018-09-15T07:48:21.342Z,1007.51
2018-09-15T07:49:21.362Z,1007.52
2018-09-15T07:50:21.383Z,1007.49
2018-09-15T07:51:21.408Z,1007.48
2018-09-15T07:52:21.421Z,1007.52
2018-09-15T07:53:21.435Z,1007.50
2018-09-15T07:54:21.450Z,1007.52
2018-09-15T07:55:21.471Z,1007.53
2018-09-15T07:56:21.483Z,1007.52
2018-09-15T07:57:21.518Z,1007.53
2018-09-15T07:58:21.584Z,1007.54
2018-09-15T07:59:21.532Z,1007.55
2018-09-15T08:00:21.550Z,1007.55
2018-09-15T08:01:22.465Z,1007.61
2018-09-15T08:02:21.581Z,1007.62
2018-09-15T08:03:21.594Z,1007.66
2018-09-15T08:04:21.700Z,1007.68
2018-09-15T08:05:21.637Z,1007.68
2018-09-15T08:06:21.656Z,1007.71
2018-09-15T08:07:21.667Z,1007.71
2018-09-15T08:08:21.689Z,1007.77
2018-09-15T08:09:21.704Z,1007.79
2018-09-15T08:10:21.802Z,1007.81
2018-09-15T08:11:21.741Z,1007.84
2018-09-15T08:12:21.757Z,1007.87
2018-09-15T08:13:21.774Z,1007.92
2018-09-15T08:14:21.784Z,1007.95
2018-09-15T08:15:21.817Z,1007.98
2018-09-15T08:16:21.869Z,1007.99
2018-09-15T08:17:21.838Z,1007.97
2018-09-15T08:18:21.862Z,1007.99
2018-09-15T08:19:22.981Z,1008.00
2018-09-15T08:20:21.889Z,1008.02
2018-09-15T08:21:21.915Z,1008.00
2018-09-15T08:22:21.997Z,1008.04
2018-09-15T08:23:21.954Z,1008.08
2018-09-15T08:24:21.963Z,1008.09
2018-09-15T08:25:21.982Z,1008.09
2018-09-15T08:26:22.040Z,1008.09
2018-09-15T08:27:22.053Z,1008.06
2018-09-15T08:28:22.099Z,1008.07
2018-09-15T08:29:22.046Z,1008.13
2018-09-15T08:30:22.070Z,1008.13
2018-09-15T08:31:22.086Z,1008.08
2018-09-15T08:32:22.102Z,1008.10
2018-09-15T08:33:22.122Z,1008.07
2018-09-15T08:34:22.204Z,1008.11
2018-09-15T08:35:22.150Z,1008.09
2018-09-15T08:36:22.170Z,1008.06
2018-09-15T08:37:22.238Z,1008.10
2018-09-15T08:38:22.209Z,1008.14
2018-09-15T08:39:22.221Z,1008.18
2018-09-15T08:40:22.327Z,1008.19
2018-09-15T08:41:22.368Z,1008.18
2018-09-15T08:42:22.276Z,1008.20
2018-09-15T08:43:22.291Z,1008.18
2018-09-15T08:44:22.315Z,1008.16
2018-09-15T08:45:22.331Z,1008.19
2018-09-15T08:46:22.391Z,1008.20
2018-09-15T08:47:22.363Z,1008.21
2018-09-15T08:48:22.469Z,1008.21
2018-09-15T08:49:22.400Z,1008.23
2018-09-15T08:50:22.420Z,1008.21
2018-09-15T08:51:22.440Z,1008.27
2018-09-15T08:52:22.446Z,1008.28
2018-09-15T08:53:22.468Z,1008.26
2018-09-15T08:54:22.485Z,1008.31
2018-09-15T08:55:22.512Z,1008.31
2018-09-15T08:56:22.516Z,1008.33
2018-09-15T08:57:22.540Z,1008.32
2018-09-15T08:58:22.553Z,1008.40
2018-09-15T08:59:22.572Z,1008.39
2018-09-15T09:00:22.589Z,1008.39
2018-09-15T09:01:22.618Z,1008.41
2018-09-15T09:02:22.628Z,1008.41
2018-09-15T09:03:22.638Z,1008.39
2018-09-15T09:04:22.665Z,1008.41
2018-09-15T09:05:22.681Z,1008.38
2018-09-15T09:06:22.692Z,1008.41
2018-09-15T09:07:22.713Z,1008.47
2018-09-15T09:08:22.737Z,1008.44
2018-09-15T09:09:22.749Z,1008.41
2018-09-15T09:10:22.817Z,1008.43
2018-09-15T09:11:22.899Z,1008.43
2018-09-15T09:12:22.801Z,1008.39
2018-09-15T09:13:22.869Z,1008.41
2018-09-15T09:14:22.841Z,1008.34
2018-09-15T09:15:22.863Z,1008.35
2018-09-15T09:16:22.874Z,1008.34
2018-09-15T09:17:22.889Z,1008.33
2018-09-15T09:18:22.909Z,1008.32
2018-09-15T09:19:22.934Z,1008.34
2018-09-15T09:20:22.945Z,1008.36
2018-09-15T09:21:22.965Z,1008.36
2018-09-15T09:22:22.993Z,1008.41
2018-09-15T09:23:23.005Z,1008.39
2018-09-15T09:24:23.019Z,1008.41
2018-09-15T09:25:23.038Z,1008.48
2018-09-15T09:26:23.183Z,1008.46
2018-09-15T09:27:23.069Z,1008.48
2018-09-15T09:28:23.086Z,1008.48
2018-09-15T09:29:23.104Z,1008.49
2018-09-15T09:30:23.126Z,1008.52
2018-09-15T09:31:23.150Z,1008.49
2018-09-15T09:32:23.197Z,1008.44
2018-09-15T09:33:23.195Z,1008.46
2018-09-15T09:34:23.202Z,1008.41
2018-09-15T09:35:23.221Z,1008.41
2018-09-15T09:36:23.241Z,1008.39
2018-09-15T09:37:23.258Z,1008.40
2018-09-15T09:38:23.335Z,1008.39
2018-09-15T09:39:23.294Z,1008.41
2018-09-15T09:40:23.365Z,1008.40
2018-09-15T09:41:23.365Z,1008.38
2018-09-15T09:42:23.354Z,1008.34
2018-09-15T09:43:23.370Z,1008.38
2018-09-15T09:44:23.389Z,1008.40
2018-09-15T09:45:23.410Z,1008.44
2018-09-15T09:46:23.431Z,1008.45
2018-09-15T09:47:23.442Z,1008.47
2018-09-15T09:48:23.548Z,1008.44
2018-09-15T09:49:23.479Z,1008.50
2018-09-15T09:50:23.501Z,1008.49
2018-09-15T09:51:23.510Z,1008.64
2018-09-15T09:52:23.531Z,1008.70
2018-09-15T09:53:23.555Z,1008.69
2018-09-15T09:54:23.571Z,1008.69
2018-09-15T09:55:23.647Z,1008.71
2018-09-15T09:56:23.611Z,1008.71
2018-09-15T09:57:23.631Z,1008.71
2018-09-15T09:58:23.651Z,1008.74
2018-09-15T09:59:23.682Z,1008.80
2018-09-15T10:00:23.687Z,1008.74
2018-09-15T10:01:23.842Z,1008.70
2018-09-15T10:02:23.728Z,1008.65
2018-09-15T10:03:23.751Z,1008.62
2018-09-15T10:04:23.768Z,1008.65
2018-09-15T10:05:23.792Z,1008.61
2018-09-15T10:06:23.811Z,1008.67
2018-09-15T10:07:23.831Z,1008.69
2018-09-15T10:08:23.847Z,1008.75
2018-09-15T10:09:23.865Z,1008.68
2018-09-15T10:10:23.888Z,1008.69
2018-09-15T10:11:23.911Z,1008.69
2018-09-15T10:12:23.932Z,1008.70
2018-09-15T10:13:23.956Z,1008.65
2018-09-15T10:14:23.965Z,1008.66
2018-09-15T10:15:23.984Z,1008.66
2018-09-15T10:16:24.062Z,1008.67
2018-09-15T10:17:24.041Z,1008.73
2018-09-15T10:18:24.042Z,1008.76
2018-09-15T10:19:24.069Z,1008.77
2018-09-15T10:20:24.089Z,1008.79
2018-09-15T10:21:24.147Z,1008.82
2018-09-15T10:22:24.125Z,1008.79
2018-09-15T10:23:24.192Z,1008.77
2018-09-15T10:24:24.172Z,1008.77
2018-09-15T10:25:24.194Z,1008.76
2018-09-15T10:26:24.210Z,1008.75
2018-09-15T10:27:24.230Z,1008.75
2018-09-15T10:28:24.258Z,1008.68
2018-09-15T10:29:24.278Z,1008.67
2018-09-15T10:30:24.288Z,1008.71
2018-09-15T10:31:24.317Z,1008.73
2018-09-15T10:32:24.338Z,1008.70
2018-09-15T10:33:24.373Z,1008.72
2018-09-15T10:34:24.384Z,1008.74
2018-09-15T10:35:24.402Z,1008.73
2018-09-15T10:36:24.421Z,1008.73
2018-09-15T10:37:24.446Z,1008.75
2018-09-15T10:38:24.493Z,1008.75
2018-09-15T10:39:25.677Z,1008.77
2018-09-15T10:40:24.603Z,1008.74
2018-09-15T10:41:24.530Z,1008.76
2018-09-15T10:42:24.552Z,1008.75
2018-09-15T10:43:24.577Z,1008.75
2018-09-15T10:44:24.601Z,1008.71
2018-09-15T10:45:24.626Z,1008.70
2018-09-15T10:46:24.646Z,1008.70
2018-09-15T10:47:24.670Z,1008.70
2018-09-15T10:48:24.690Z,1008.67
2018-09-15T10:49:24.711Z,1008.70
2018-09-15T10:50:24.738Z,1008.68
2018-09-15T10:51:24.759Z,1008.69
2018-09-15T10:52:24.836Z,1008.68
2018-09-15T10:53:24.801Z,1008.66
2018-09-15T10:54:24.822Z,1008.66
2018-09-15T10:55:24.873Z,1008.66
2018-09-15T10:56:24.866Z,1008.68
2018-09-15T10:57:24.894Z,1008.66
2018-09-15T10:58:24.918Z,1008.64
2018-09-15T10:59:24.940Z,1008.61
2018-09-15T11:00:25.049Z,1008.58
2018-09-15T11:01:24.991Z,1008.55
2018-09-15T11:02:25.017Z,1008.54
2018-09-15T11:03:25.027Z,1008.60
2018-09-15T11:04:25.142Z,1008.58
2018-09-15T11:05:25.078Z,1008.58
2018-09-15T11:06:25.106Z,1008.54
2018-09-15T11:07:25.122Z,1008.54
2018-09-15T11:08:25.146Z,1008.49
2018-09-15T11:09:25.166Z,1008.50
2018-09-15T11:10:25.191Z,1008.48
2018-09-15T11:11:25.223Z,1008.46
2018-09-15T11:12:25.242Z,1008.48
2018-09-15T11:13:25.373Z,1008.49
2018-09-15T11:14:25.286Z,1008.50
2018-09-15T11:15:25.315Z,1008.45
2018-09-15T11:16:25.339Z,1008.47
2018-09-15T11:17:25.363Z,1008.47
2018-09-15T11:18:25.456Z,1008.50
2018-09-15T11:19:25.413Z,1008.49
2018-09-15T11:20:25.432Z,1008.50
2018-09-15T11:21:25.446Z,1008.51
2018-09-15T11:22:25.493Z,1008.55
2018-09-15T11:23:25.503Z,1008.56
2018-09-15T11:24:25.519Z,1008.52
2018-09-15T11:25:25.546Z,1008.53
2018-09-15T11:26:25.575Z,1008.54
2018-09-15T11:27:25.591Z,1008.57
2018-09-15T11:28:25.642Z,1008.62
2018-09-15T11:29:25.640Z,1008.57
2018-09-15T11:30:25.656Z,1008.53
2018-09-15T11:31:25.690Z,1008.53
2018-09-15T11:32:25.707Z,1008.54
2018-09-15T11:33:25.739Z,1008.49
2018-09-15T11:34:25.754Z,1008.47
2018-09-15T11:35:25.776Z,1008.49
2018-09-15T11:36:25.799Z,1008.49
2018-09-15T11:37:25.823Z,1008.44
2018-09-15T11:38:25.851Z,1008.47
2018-09-15T11:39:25.888Z,1008.47
2018-09-15T11:40:25.895Z,1008.46
2018-09-15T11:41:25.914Z,1008.48
2018-09-15T11:42:25.940Z,1008.46
2018-09-15T11:43:26.025Z,1008.51
2018-09-15T11:44:25.991Z,1008.52
2018-09-15T11:45:26.016Z,1008.48
2018-09-15T11:46:26.043Z,1008.51
2018-09-15T11:47:26.059Z,1008.50
2018-09-15T11:48:26.088Z,1008.47
2018-09-15T11:49:26.115Z,1008.44
2018-09-15T11:50:26.136Z,1008.43
2018-09-15T11:51:26.153Z,1008.45
2018-09-15T11:52:26.185Z,1008.47
2018-09-15T11:53:26.208Z,1008.46
2018-09-15T11:54:26.228Z,1008.44
2018-09-15T11:55:26.251Z,1008.50
2018-09-15T11:56:26.280Z,1008.50
2018-09-15T11:57:26.304Z,1008.48
2018-09-15T11:58:26.328Z,1008.41
2018-09-15T11:59:26.351Z,1008.40
2018-09-15T12:00:26.370Z,1008.40
2018-09-15T12:01:26.400Z,1008.34
2018-09-15T12:02:26.420Z,1008.34
2018-09-15T12:03:26.440Z,1008.29
2018-09-15T12:04:26.471Z,1008.36
2018-09-15T12:05:26.492Z,1008.33